sensor_id;sensor_type;location;lat;lon;timestamp;P1;durP1;ratioP1;P2;durP2;ratioP2
77206;SDS011;66190;50.708;7.906;2024-01-30T00:02:16;15.17;;;7.70;;
77206;SDS011;66190;50.708;7.906;2024-01-30T00:04:42;15.35;;;6.97;;
77206;SDS011;66190;50.708;7.906;2024-01-30T00:07:07;18.40;;;7.67;;
77206;SDS011;66190;50.708;7.906;2024-01-30T00:09:33;18.20;;;6.83;;
77206;SDS011;66190;50.708;7.906;2024-01-30T00:11:58;13.75;;;6.32;;
77206;SDS011;66190;50.708;7.906;2024-01-30T00:14:24;14.40;;;6.90;;
77206;SDS011;66190;50.708;7.906;2024-01-30T00:16:50;17.23;;;7.63;;
77206;SDS011;66190;50.708;7.906;2024-01-30T00:19:16;15.30;;;7.03;;
77206;SDS011;66190;50.708;7.906;2024-01-30T00:21:41;15.13;;;6.37;;
77206;SDS011;66190;50.708;7.906;2024-01-30T00:24:07;16.57;;;7.17;;
77206;SDS011;66190;50.708;7.906;2024-01-30T00:26:32;15.07;;;6.88;;
77206;SDS011;66190;50.708;7.906;2024-01-30T00:28:58;16.63;;;6.25;;
77206;SDS011;66190;50.708;7.906;2024-01-30T00:31:23;15.20;;;6.93;;
77206;SDS011;66190;50.708;7.906;2024-01-30T00:33:49;14.30;;;6.60;;
77206;SDS011;66190;50.708;7.906;2024-01-30T00:36:14;14.17;;;6.40;;
77206;SDS011;66190;50.708;7.906;2024-01-30T00:38:40;13.53;;;6.47;;
77206;SDS011;66190;50.708;7.906;2024-01-30T00:41:06;15.40;;;6.53;;
77206;SDS011;66190;50.708;7.906;2024-01-30T00:43:33;16.88;;;7.35;;
77206;SDS011;66190;50.708;7.906;2024-01-30T00:45:58;13.63;;;6.77;;
77206;SDS011;66190;50.708;7.906;2024-01-30T00:48:24;12.48;;;6.22;;
77206;SDS011;66190;50.708;7.906;2024-01-30T00:50:49;14.60;;;7.33;;
77206;SDS011;66190;50.708;7.906;2024-01-30T00:53:15;15.10;;;6.35;;
77206;SDS011;66190;50.708;7.906;2024-01-30T00:55:40;14.18;;;6.70;;
77206;SDS011;66190;50.708;7.906;2024-01-30T00:58:05;15.13;;;6.03;;
77206;SDS011;66190;50.708;7.906;2024-01-30T01:00:31;14.17;;;6.50;;
77206;SDS011;66190;50.708;7.906;2024-01-30T01:03:00;16.98;;;6.20;;
77206;SDS011;66190;50.708;7.906;2024-01-30T01:05:26;14.88;;;6.35;;
77206;SDS011;66190;50.708;7.906;2024-01-30T01:07:51;16.00;;;5.90;;
77206;SDS011;66190;50.708;7.906;2024-01-30T01:10:17;15.50;;;6.20;;
77206;SDS011;66190;50.708;7.906;2024-01-30T01:12:43;13.88;;;6.70;;
77206;SDS011;66190;50.708;7.906;2024-01-30T01:15:09;12.75;;;6.50;;
77206;SDS011;66190;50.708;7.906;2024-01-30T01:17:35;13.77;;;5.77;;
77206;SDS011;66190;50.708;7.906;2024-01-30T01:20:04;16.77;;;7.05;;
77206;SDS011;66190;50.708;7.906;2024-01-30T01:22:31;12.75;;;6.10;;
77206;SDS011;66190;50.708;7.906;2024-01-30T01:24:57;15.10;;;6.80;;
77206;SDS011;66190;50.708;7.906;2024-01-30T01:27:23;15.87;;;6.13;;
77206;SDS011;66190;50.708;7.906;2024-01-30T01:29:49;15.30;;;6.57;;
77206;SDS011;66190;50.708;7.906;2024-01-30T01:32:14;12.03;;;6.10;;
77206;SDS011;66190;50.708;7.906;2024-01-30T01:34:40;12.67;;;5.67;;
77206;SDS011;66190;50.708;7.906;2024-01-30T01:37:05;11.83;;;5.60;;
77206;SDS011;66190;50.708;7.906;2024-01-30T01:39:30;12.73;;;5.47;;
77206;SDS011;66190;50.708;7.906;2024-01-30T01:41:56;16.33;;;5.97;;
77206;SDS011;66190;50.708;7.906;2024-01-30T01:44:21;13.95;;;5.25;;
77206;SDS011;66190;50.708;7.906;2024-01-30T01:46:46;13.90;;;5.90;;
77206;SDS011;66190;50.708;7.906;2024-01-30T01:49:12;12.93;;;5.50;;
77206;SDS011;66190;50.708;7.906;2024-01-30T01:51:38;13.05;;;5.43;;
77206;SDS011;66190;50.708;7.906;2024-01-30T01:54:06;12.77;;;5.35;;
77206;SDS011;66190;50.708;7.906;2024-01-30T01:56:32;12.82;;;5.28;;
77206;SDS011;66190;50.708;7.906;2024-01-30T01:58:59;13.37;;;5.37;;
77206;SDS011;66190;50.708;7.906;2024-01-30T02:01:30;11.63;;;5.40;;
77206;SDS011;66190;50.708;7.906;2024-01-30T02:03:57;12.50;;;5.70;;
77206;SDS011;66190;50.708;7.906;2024-01-30T02:06:23;12.27;;;5.70;;
77206;SDS011;66190;50.708;7.906;2024-01-30T02:08:49;13.53;;;5.87;;
77206;SDS011;66190;50.708;7.906;2024-01-30T02:11:14;13.60;;;6.20;;
77206;SDS011;66190;50.708;7.906;2024-01-30T02:13:41;11.07;;;5.22;;
77206;SDS011;66190;50.708;7.906;2024-01-30T02:16:07;13.07;;;5.55;;
77206;SDS011;66190;50.708;7.906;2024-01-30T02:18:32;12.68;;;5.75;;
77206;SDS011;66190;50.708;7.906;2024-01-30T02:20:58;12.73;;;5.40;;
77206;SDS011;66190;50.708;7.906;2024-01-30T02:23:26;14.85;;;5.93;;
77206;SDS011;66190;50.708;7.906;2024-01-30T02:25:52;14.30;;;5.60;;
77206;SDS011;66190;50.708;7.906;2024-01-30T02:28:18;15.23;;;5.97;;
77206;SDS011;66190;50.708;7.906;2024-01-30T02:30:44;12.50;;;5.38;;
77206;SDS011;66190;50.708;7.906;2024-01-30T02:33:09;13.95;;;5.97;;
77206;SDS011;66190;50.708;7.906;2024-01-30T02:35:35;13.00;;;5.60;;
77206;SDS011;66190;50.708;7.906;2024-01-30T02:38:00;14.87;;;6.03;;
77206;SDS011;66190;50.708;7.906;2024-01-30T02:40:26;13.17;;;6.20;;
77206;SDS011;66190;50.708;7.906;2024-01-30T02:42:51;11.85;;;5.68;;
77206;SDS011;66190;50.708;7.906;2024-01-30T02:45:17;12.93;;;5.00;;
77206;SDS011;66190;50.708;7.906;2024-01-30T02:47:42;12.93;;;5.77;;
77206;SDS011;66190;50.708;7.906;2024-01-30T02:50:08;11.95;;;5.40;;
77206;SDS011;66190;50.708;7.906;2024-01-30T02:52:34;13.93;;;5.97;;
77206;SDS011;66190;50.708;7.906;2024-01-30T02:54:59;11.90;;;6.10;;
77206;SDS011;66190;50.708;7.906;2024-01-30T02:57:25;11.45;;;5.18;;
77206;SDS011;66190;50.708;7.906;2024-01-30T02:59:50;14.37;;;6.20;;
77206;SDS011;66190;50.708;7.906;2024-01-30T03:02:16;13.55;;;5.60;;
77206;SDS011;66190;50.708;7.906;2024-01-30T03:04:41;12.77;;;6.10;;
77206;SDS011;66190;50.708;7.906;2024-01-30T03:07:07;14.73;;;6.47;;
77206;SDS011;66190;50.708;7.906;2024-01-30T03:09:32;11.73;;;5.13;;
77206;SDS011;66190;50.708;7.906;2024-01-30T03:11:58;11.85;;;5.50;;
77206;SDS011;66190;50.708;7.906;2024-01-30T03:14:24;13.90;;;5.93;;
77206;SDS011;66190;50.708;7.906;2024-01-30T03:16:49;14.30;;;6.23;;
77206;SDS011;66190;50.708;7.906;2024-01-30T03:19:14;12.93;;;5.33;;
77206;SDS011;66190;50.708;7.906;2024-01-30T03:21:40;11.07;;;5.25;;
77206;SDS011;66190;50.708;7.906;2024-01-30T03:24:05;15.43;;;6.27;;
77206;SDS011;66190;50.708;7.906;2024-01-30T03:26:31;11.93;;;5.43;;
77206;SDS011;66190;50.708;7.906;2024-01-30T03:28:56;11.60;;;5.30;;
77206;SDS011;66190;50.708;7.906;2024-01-30T03:31:22;11.37;;;5.07;;
77206;SDS011;66190;50.708;7.906;2024-01-30T03:33:47;16.58;;;5.05;;
77206;SDS011;66190;50.708;7.906;2024-01-30T03:36:12;12.00;;;5.20;;
77206;SDS011;66190;50.708;7.906;2024-01-30T03:38:38;13.07;;;5.30;;
77206;SDS011;66190;50.708;7.906;2024-01-30T03:41:07;11.30;;;4.97;;
77206;SDS011;66190;50.708;7.906;2024-01-30T03:43:33;14.20;;;5.82;;
77206;SDS011;66190;50.708;7.906;2024-01-30T03:45:58;11.83;;;5.70;;
77206;SDS011;66190;50.708;7.906;2024-01-30T03:48:24;12.75;;;5.53;;
77206;SDS011;66190;50.708;7.906;2024-01-30T03:50:50;22.75;;;8.40;;
77206;SDS011;66190;50.708;7.906;2024-01-30T03:53:16;19.03;;;8.67;;
77206;SDS011;66190;50.708;7.906;2024-01-30T03:55:42;12.48;;;5.43;;
77206;SDS011;66190;50.708;7.906;2024-01-30T03:58:07;15.67;;;6.93;;
77206;SDS011;66190;50.708;7.906;2024-01-30T04:00:33;17.20;;;8.40;;
77206;SDS011;66190;50.708;7.906;2024-01-30T04:02:58;20.87;;;9.37;;
77206;SDS011;66190;50.708;7.906;2024-01-30T04:05:24;15.80;;;7.07;;
77206;SDS011;66190;50.708;7.906;2024-01-30T04:07:49;15.45;;;8.63;;
77206;SDS011;66190;50.708;7.906;2024-01-30T04:10:14;18.10;;;7.10;;
77206;SDS011;66190;50.708;7.906;2024-01-30T04:12:40;15.73;;;7.83;;
77206;SDS011;66190;50.708;7.906;2024-01-30T04:15:05;12.87;;;6.73;;
77206;SDS011;66190;50.708;7.906;2024-01-30T04:17:31;13.33;;;6.67;;
77206;SDS011;66190;50.708;7.906;2024-01-30T04:19:56;12.48;;;5.72;;
77206;SDS011;66190;50.708;7.906;2024-01-30T04:22:21;14.30;;;5.20;;
77206;SDS011;66190;50.708;7.906;2024-01-30T04:24:47;12.47;;;5.77;;
77206;SDS011;66190;50.708;7.906;2024-01-30T04:27:12;12.43;;;5.23;;
77206;SDS011;66190;50.708;7.906;2024-01-30T04:29:38;11.63;;;5.27;;
77206;SDS011;66190;50.708;7.906;2024-01-30T04:32:03;12.63;;;6.57;;
77206;SDS011;66190;50.708;7.906;2024-01-30T04:34:29;14.17;;;5.67;;
77206;SDS011;66190;50.708;7.906;2024-01-30T04:36:54;12.68;;;5.35;;
77206;SDS011;66190;50.708;7.906;2024-01-30T04:39:20;12.38;;;5.45;;
77206;SDS011;66190;50.708;7.906;2024-01-30T04:41:45;11.73;;;5.10;;
77206;SDS011;66190;50.708;7.906;2024-01-30T04:44:11;11.43;;;5.10;;
77206;SDS011;66190;50.708;7.906;2024-01-30T04:46:36;12.77;;;5.37;;
77206;SDS011;66190;50.708;7.906;2024-01-30T04:49:01;10.73;;;4.60;;
77206;SDS011;66190;50.708;7.906;2024-01-30T04:51:28;11.07;;;4.93;;
77206;SDS011;66190;50.708;7.906;2024-01-30T04:53:54;10.90;;;5.10;;
77206;SDS011;66190;50.708;7.906;2024-01-30T04:56:20;12.17;;;5.03;;
77206;SDS011;66190;50.708;7.906;2024-01-30T04:58:45;11.40;;;5.47;;
77206;SDS011;66190;50.708;7.906;2024-01-30T05:01:14;11.63;;;5.40;;
77206;SDS011;66190;50.708;7.906;2024-01-30T05:03:41;12.25;;;5.00;;
77206;SDS011;66190;50.708;7.906;2024-01-30T05:06:06;13.43;;;5.30;;
77206;SDS011;66190;50.708;7.906;2024-01-30T05:08:32;11.35;;;4.57;;
77206;SDS011;66190;50.708;7.906;2024-01-30T05:10:59;11.03;;;5.30;;
77206;SDS011;66190;50.708;7.906;2024-01-30T05:13:25;13.40;;;5.07;;
77206;SDS011;66190;50.708;7.906;2024-01-30T05:15:51;11.57;;;4.90;;
77206;SDS011;66190;50.708;7.906;2024-01-30T05:18:16;13.97;;;5.20;;
77206;SDS011;66190;50.708;7.906;2024-01-30T05:20:41;11.50;;;4.43;;
77206;SDS011;66190;50.708;7.906;2024-01-30T05:23:07;11.80;;;5.00;;
77206;SDS011;66190;50.708;7.906;2024-01-30T05:25:33;12.77;;;5.82;;
77206;SDS011;66190;50.708;7.906;2024-01-30T05:27:58;12.47;;;4.97;;
77206;SDS011;66190;50.708;7.906;2024-01-30T05:30:23;11.87;;;5.03;;
77206;SDS011;66190;50.708;7.906;2024-01-30T05:32:49;12.80;;;5.07;;
77206;SDS011;66190;50.708;7.906;2024-01-30T05:35:14;15.23;;;5.68;;
77206;SDS011;66190;50.708;7.906;2024-01-30T05:37:40;11.87;;;4.90;;
77206;SDS011;66190;50.708;7.906;2024-01-30T05:40:05;13.40;;;5.20;;
77206;SDS011;66190;50.708;7.906;2024-01-30T05:42:31;11.65;;;4.28;;
77206;SDS011;66190;50.708;7.906;2024-01-30T05:44:57;11.03;;;5.00;;
77206;SDS011;66190;50.708;7.906;2024-01-30T05:47:22;11.70;;;5.00;;
77206;SDS011;66190;50.708;7.906;2024-01-30T05:49:48;11.80;;;5.13;;
77206;SDS011;66190;50.708;7.906;2024-01-30T05:52:13;12.77;;;4.73;;
77206;SDS011;66190;50.708;7.906;2024-01-30T05:54:40;11.68;;;4.97;;
77206;SDS011;66190;50.708;7.906;2024-01-30T05:57:05;11.03;;;4.30;;
77206;SDS011;66190;50.708;7.906;2024-01-30T05:59:31;14.03;;;5.23;;
77206;SDS011;66190;50.708;7.906;2024-01-30T06:01:57;12.90;;;4.95;;
77206;SDS011;66190;50.708;7.906;2024-01-30T06:04:22;11.50;;;4.87;;
77206;SDS011;66190;50.708;7.906;2024-01-30T06:06:48;10.43;;;5.07;;
77206;SDS011;66190;50.708;7.906;2024-01-30T06:09:13;10.13;;;4.68;;
77206;SDS011;66190;50.708;7.906;2024-01-30T06:11:39;11.00;;;4.83;;
77206;SDS011;66190;50.708;7.906;2024-01-30T06:14:04;14.03;;;5.33;;
77206;SDS011;66190;50.708;7.906;2024-01-30T06:16:30;13.38;;;5.95;;
77206;SDS011;66190;50.708;7.906;2024-01-30T06:18:56;12.13;;;5.23;;
77206;SDS011;66190;50.708;7.906;2024-01-30T06:21:21;11.90;;;5.77;;
77206;SDS011;66190;50.708;7.906;2024-01-30T06:23:47;11.90;;;5.72;;
77206;SDS011;66190;50.708;7.906;2024-01-30T06:26:12;11.90;;;5.03;;
77206;SDS011;66190;50.708;7.906;2024-01-30T06:28:37;14.50;;;5.07;;
77206;SDS011;66190;50.708;7.906;2024-01-30T06:31:03;12.50;;;5.23;;
77206;SDS011;66190;50.708;7.906;2024-01-30T06:33:28;11.45;;;4.65;;
77206;SDS011;66190;50.708;7.906;2024-01-30T06:35:54;12.13;;;4.83;;
77206;SDS011;66190;50.708;7.906;2024-01-30T06:38:19;15.53;;;5.03;;
77206;SDS011;66190;50.708;7.906;2024-01-30T06:40:44;12.40;;;6.07;;
77206;SDS011;66190;50.708;7.906;2024-01-30T06:43:10;12.17;;;5.60;;
77206;SDS011;66190;50.708;7.906;2024-01-30T06:45:36;11.77;;;5.15;;
77206;SDS011;66190;50.708;7.906;2024-01-30T06:48:02;12.98;;;5.10;;
77206;SDS011;66190;50.708;7.906;2024-01-30T06:50:28;13.77;;;5.50;;
77206;SDS011;66190;50.708;7.906;2024-01-30T06:52:53;11.27;;;5.07;;
77206;SDS011;66190;50.708;7.906;2024-01-30T06:55:18;12.48;;;5.05;;
77206;SDS011;66190;50.708;7.906;2024-01-30T06:57:44;10.70;;;4.93;;
77206;SDS011;66190;50.708;7.906;2024-01-30T07:00:09;15.27;;;5.53;;
77206;SDS011;66190;50.708;7.906;2024-01-30T07:02:35;12.38;;;5.45;;
77206;SDS011;66190;50.708;7.906;2024-01-30T07:05:01;11.00;;;5.07;;
77206;SDS011;66190;50.708;7.906;2024-01-30T07:07:27;10.95;;;4.30;;
77206;SDS011;66190;50.708;7.906;2024-01-30T07:09:53;11.93;;;5.03;;
77206;SDS011;66190;50.708;7.906;2024-01-30T07:12:21;13.40;;;4.75;;
77206;SDS011;66190;50.708;7.906;2024-01-30T07:14:47;13.47;;;5.20;;
77206;SDS011;66190;50.708;7.906;2024-01-30T07:17:13;14.10;;;5.05;;
77206;SDS011;66190;50.708;7.906;2024-01-30T07:19:38;13.83;;;5.00;;
77206;SDS011;66190;50.708;7.906;2024-01-30T07:22:04;15.87;;;4.93;;
77206;SDS011;66190;50.708;7.906;2024-01-30T07:24:29;12.97;;;5.40;;
77206;SDS011;66190;50.708;7.906;2024-01-30T07:26:54;15.38;;;5.28;;
77206;SDS011;66190;50.708;7.906;2024-01-30T07:29:20;11.87;;;5.40;;
77206;SDS011;66190;50.708;7.906;2024-01-30T07:31:46;14.32;;;6.28;;
77206;SDS011;66190;50.708;7.906;2024-01-30T07:34:12;13.57;;;5.80;;
77206;SDS011;66190;50.708;7.906;2024-01-30T07:36:37;13.10;;;6.80;;
77206;SDS011;66190;50.708;7.906;2024-01-30T07:39:03;14.03;;;6.17;;
77206;SDS011;66190;50.708;7.906;2024-01-30T07:41:28;13.27;;;5.53;;
77206;SDS011;66190;50.708;7.906;2024-01-30T07:43:53;14.27;;;6.87;;
77206;SDS011;66190;50.708;7.906;2024-01-30T07:46:19;14.93;;;6.37;;
77206;SDS011;66190;50.708;7.906;2024-01-30T07:48:44;13.57;;;5.63;;
77206;SDS011;66190;50.708;7.906;2024-01-30T07:51:09;12.77;;;5.47;;
77206;SDS011;66190;50.708;7.906;2024-01-30T07:53:35;13.00;;;5.27;;
77206;SDS011;66190;50.708;7.906;2024-01-30T07:56:00;12.23;;;6.00;;
77206;SDS011;66190;50.708;7.906;2024-01-30T07:58:26;13.00;;;5.93;;
77206;SDS011;66190;50.708;7.906;2024-01-30T08:00:52;12.07;;;5.63;;
77206;SDS011;66190;50.708;7.906;2024-01-30T08:03:18;11.77;;;5.90;;
77206;SDS011;66190;50.708;7.906;2024-01-30T08:05:44;11.23;;;5.27;;
77206;SDS011;66190;50.708;7.906;2024-01-30T08:08:09;13.27;;;5.27;;
77206;SDS011;66190;50.708;7.906;2024-01-30T08:10:34;12.10;;;5.40;;
77206;SDS011;66190;50.708;7.906;2024-01-30T08:13:01;11.05;;;5.00;;
77206;SDS011;66190;50.708;7.906;2024-01-30T08:15:27;11.20;;;4.70;;
77206;SDS011;66190;50.708;7.906;2024-01-30T08:17:52;12.43;;;4.80;;
77206;SDS011;66190;50.708;7.906;2024-01-30T08:20:22;16.05;;;5.00;;
77206;SDS011;66190;50.708;7.906;2024-01-30T08:22:48;13.32;;;5.40;;
77206;SDS011;66190;50.708;7.906;2024-01-30T08:25:13;11.40;;;4.70;;
77206;SDS011;66190;50.708;7.906;2024-01-30T08:27:39;11.33;;;4.93;;
77206;SDS011;66190;50.708;7.906;2024-01-30T08:30:05;14.37;;;5.57;;
77206;SDS011;66190;50.708;7.906;2024-01-30T08:32:31;12.88;;;5.07;;
77206;SDS011;66190;50.708;7.906;2024-01-30T08:34:57;11.13;;;5.00;;
77206;SDS011;66190;50.708;7.906;2024-01-30T08:37:23;12.23;;;4.57;;
77206;SDS011;66190;50.708;7.906;2024-01-30T08:39:48;10.47;;;5.00;;
77206;SDS011;66190;50.708;7.906;2024-01-30T08:42:14;12.73;;;4.85;;
77206;SDS011;66190;50.708;7.906;2024-01-30T08:44:39;11.67;;;4.50;;
77206;SDS011;66190;50.708;7.906;2024-01-30T08:47:05;11.87;;;5.27;;
77206;SDS011;66190;50.708;7.906;2024-01-30T08:49:30;10.18;;;4.47;;
77206;SDS011;66190;50.708;7.906;2024-01-30T08:51:56;12.63;;;4.80;;
77206;SDS011;66190;50.708;7.906;2024-01-30T08:54:21;11.70;;;4.57;;
77206;SDS011;66190;50.708;7.906;2024-01-30T08:56:47;12.85;;;5.00;;
77206;SDS011;66190;50.708;7.906;2024-01-30T08:59:13;11.10;;;4.57;;
77206;SDS011;66190;50.708;7.906;2024-01-30T09:01:38;10.30;;;4.27;;
77206;SDS011;66190;50.708;7.906;2024-01-30T09:04:04;13.17;;;5.13;;
77206;SDS011;66190;50.708;7.906;2024-01-30T09:06:29;12.82;;;5.18;;
77206;SDS011;66190;50.708;7.906;2024-01-30T09:08:54;10.27;;;4.28;;
77206;SDS011;66190;50.708;7.906;2024-01-30T09:11:20;12.47;;;4.83;;
77206;SDS011;66190;50.708;7.906;2024-01-30T09:13:45;12.77;;;5.33;;
77206;SDS011;66190;50.708;7.906;2024-01-30T09:16:11;11.07;;;4.67;;
77206;SDS011;66190;50.708;7.906;2024-01-30T09:18:36;11.27;;;4.63;;
77206;SDS011;66190;50.708;7.906;2024-01-30T09:21:01;10.25;;;4.47;;
77206;SDS011;66190;50.708;7.906;2024-01-30T09:23:27;10.93;;;4.80;;
77206;SDS011;66190;50.708;7.906;2024-01-30T09:25:53;12.23;;;5.30;;
77206;SDS011;66190;50.708;7.906;2024-01-30T09:28:18;10.20;;;4.32;;
77206;SDS011;66190;50.708;7.906;2024-01-30T09:30:44;11.63;;;5.13;;
77206;SDS011;66190;50.708;7.906;2024-01-30T09:33:09;13.10;;;5.43;;
77206;SDS011;66190;50.708;7.906;2024-01-30T09:35:35;10.40;;;5.10;;
77206;SDS011;66190;50.708;7.906;2024-01-30T09:38:01;10.10;;;4.85;;
77206;SDS011;66190;50.708;7.906;2024-01-30T09:40:27;10.63;;;4.50;;
77206;SDS011;66190;50.708;7.906;2024-01-30T09:42:53;11.53;;;5.07;;
77206;SDS011;66190;50.708;7.906;2024-01-30T09:45:19;11.23;;;4.70;;
77206;SDS011;66190;50.708;7.906;2024-01-30T09:47:48;10.90;;;4.53;;
77206;SDS011;66190;50.708;7.906;2024-01-30T09:50:14;12.97;;;5.47;;
77206;SDS011;66190;50.708;7.906;2024-01-30T09:52:40;15.60;;;6.55;;
77206;SDS011;66190;50.708;7.906;2024-01-30T09:55:06;13.30;;;5.57;;
77206;SDS011;66190;50.708;7.906;2024-01-30T09:57:33;11.80;;;5.03;;
77206;SDS011;66190;50.708;7.906;2024-01-30T09:59:59;12.70;;;4.72;;
77206;SDS011;66190;50.708;7.906;2024-01-30T10:02:24;11.00;;;4.90;;
77206;SDS011;66190;50.708;7.906;2024-01-30T10:04:50;12.43;;;4.47;;
77206;SDS011;66190;50.708;7.906;2024-01-30T10:07:17;15.23;;;5.47;;
77206;SDS011;66190;50.708;7.906;2024-01-30T10:09:42;11.55;;;5.38;;
77206;SDS011;66190;50.708;7.906;2024-01-30T10:12:11;11.48;;;4.50;;
77206;SDS011;66190;50.708;7.906;2024-01-30T10:14:40;11.27;;;5.23;;
77206;SDS011;66190;50.708;7.906;2024-01-30T10:17:09;13.93;;;4.90;;
77206;SDS011;66190;50.708;7.906;2024-01-30T10:19:35;13.85;;;5.40;;
77206;SDS011;66190;50.708;7.906;2024-01-30T10:22:02;13.90;;;5.70;;
77206;SDS011;66190;50.708;7.906;2024-01-30T10:24:30;11.90;;;5.25;;
77206;SDS011;66190;50.708;7.906;2024-01-30T10:26:56;11.37;;;4.70;;
77206;SDS011;66190;50.708;7.906;2024-01-30T10:29:22;11.07;;;4.78;;
77206;SDS011;66190;50.708;7.906;2024-01-30T10:32:03;10.80;;;4.30;;
77206;SDS011;66190;50.708;7.906;2024-01-30T10:34:30;11.45;;;4.50;;
77206;SDS011;66190;50.708;7.906;2024-01-30T10:39:30;11.60;;;5.95;;
77206;SDS011;66190;50.708;7.906;2024-01-30T10:41:59;11.27;;;5.45;;
77206;SDS011;66190;50.708;7.906;2024-01-30T10:44:30;10.25;;;4.20;;
77206;SDS011;66190;50.708;7.906;2024-01-30T10:47:10;10.00;;;4.78;;
77206;SDS011;66190;50.708;7.906;2024-01-30T10:49:40;10.68;;;4.15;;
77206;SDS011;66190;50.708;7.906;2024-01-30T10:52:07;12.00;;;5.10;;
77206;SDS011;66190;50.708;7.906;2024-01-30T10:54:34;14.20;;;5.25;;
77206;SDS011;66190;50.708;7.906;2024-01-30T10:57:00;11.48;;;5.22;;
77206;SDS011;66190;50.708;7.906;2024-01-30T10:59:29;11.57;;;5.20;;
77206;SDS011;66190;50.708;7.906;2024-01-30T11:01:56;10.82;;;4.65;;
77206;SDS011;66190;50.708;7.906;2024-01-30T11:04:23;11.73;;;4.90;;
77206;SDS011;66190;50.708;7.906;2024-01-30T11:06:50;10.87;;;4.83;;
77206;SDS011;66190;50.708;7.906;2024-01-30T11:09:17;11.20;;;5.20;;
77206;SDS011;66190;50.708;7.906;2024-01-30T11:11:55;12.80;;;4.80;;
77206;SDS011;66190;50.708;7.906;2024-01-30T11:14:26;10.57;;;4.35;;
77206;SDS011;66190;50.708;7.906;2024-01-30T11:16:52;11.73;;;4.47;;
77206;SDS011;66190;50.708;7.906;2024-01-30T11:19:27;11.65;;;4.88;;
77206;SDS011;66190;50.708;7.906;2024-01-30T11:21:56;12.20;;;4.70;;
77206;SDS011;66190;50.708;7.906;2024-01-30T11:24:22;11.50;;;4.63;;
77206;SDS011;66190;50.708;7.906;2024-01-30T11:26:58;13.20;;;5.68;;
77206;SDS011;66190;50.708;7.906;2024-01-30T11:29:24;12.18;;;5.32;;
77206;SDS011;66190;50.708;7.906;2024-01-30T11:31:53;10.77;;;4.90;;
77206;SDS011;66190;50.708;7.906;2024-01-30T11:34:20;12.87;;;5.27;;
77206;SDS011;66190;50.708;7.906;2024-01-30T11:36:56;11.55;;;5.20;;
77206;SDS011;66190;50.708;7.906;2024-01-30T11:39:25;12.13;;;4.93;;
77206;SDS011;66190;50.708;7.906;2024-01-30T11:41:51;11.00;;;4.78;;
77206;SDS011;66190;50.708;7.906;2024-01-30T11:44:18;11.05;;;5.20;;
77206;SDS011;66190;50.708;7.906;2024-01-30T11:46:46;11.13;;;4.37;;
77206;SDS011;66190;50.708;7.906;2024-01-30T11:49:12;12.77;;;4.85;;
77206;SDS011;66190;50.708;7.906;2024-01-30T11:51:38;10.30;;;4.10;;
77206;SDS011;66190;50.708;7.906;2024-01-30T11:54:03;13.70;;;5.30;;
77206;SDS011;66190;50.708;7.906;2024-01-30T11:56:29;11.90;;;5.00;;
77206;SDS011;66190;50.708;7.906;2024-01-30T11:58:54;9.63;;;4.03;;
77206;SDS011;66190;50.708;7.906;2024-01-30T12:01:20;11.02;;;4.75;;
77206;SDS011;66190;50.708;7.906;2024-01-30T12:03:49;10.97;;;4.53;;
77206;SDS011;66190;50.708;7.906;2024-01-30T12:06:15;10.13;;;4.28;;
77206;SDS011;66190;50.708;7.906;2024-01-30T12:08:41;10.95;;;4.32;;
77206;SDS011;66190;50.708;7.906;2024-01-30T12:11:07;10.23;;;4.43;;
77206;SDS011;66190;50.708;7.906;2024-01-30T12:13:32;10.07;;;3.90;;
77206;SDS011;66190;50.708;7.906;2024-01-30T12:15:58;10.70;;;4.53;;
77206;SDS011;66190;50.708;7.906;2024-01-30T12:18:24;10.25;;;4.50;;
77206;SDS011;66190;50.708;7.906;2024-01-30T12:20:58;9.53;;;4.27;;
77206;SDS011;66190;50.708;7.906;2024-01-30T12:23:25;11.57;;;4.30;;
77206;SDS011;66190;50.708;7.906;2024-01-30T12:25:52;10.37;;;4.33;;
77206;SDS011;66190;50.708;7.906;2024-01-30T12:28:17;10.65;;;4.30;;
77206;SDS011;66190;50.708;7.906;2024-01-30T12:30:43;11.73;;;4.40;;
77206;SDS011;66190;50.708;7.906;2024-01-30T12:33:08;9.17;;;3.67;;
77206;SDS011;66190;50.708;7.906;2024-01-30T12:35:35;9.18;;;4.25;;
77206;SDS011;66190;50.708;7.906;2024-01-30T12:38:00;10.07;;;4.20;;
77206;SDS011;66190;50.708;7.906;2024-01-30T12:40:27;9.68;;;4.20;;
77206;SDS011;66190;50.708;7.906;2024-01-30T12:42:53;11.98;;;4.60;;
77206;SDS011;66190;50.708;7.906;2024-01-30T12:45:19;10.73;;;4.70;;
77206;SDS011;66190;50.708;7.906;2024-01-30T12:47:46;13.55;;;4.55;;
77206;SDS011;66190;50.708;7.906;2024-01-30T12:50:12;9.43;;;4.40;;
77206;SDS011;66190;50.708;7.906;2024-01-30T12:52:40;10.63;;;4.18;;
77206;SDS011;66190;50.708;7.906;2024-01-30T12:55:06;11.60;;;4.80;;
77206;SDS011;66190;50.708;7.906;2024-01-30T12:57:32;11.88;;;4.10;;
77206;SDS011;66190;50.708;7.906;2024-01-30T12:59:57;11.13;;;4.33;;
77206;SDS011;66190;50.708;7.906;2024-01-30T13:02:23;10.17;;;4.50;;
77206;SDS011;66190;50.708;7.906;2024-01-30T13:04:48;11.63;;;4.75;;
77206;SDS011;66190;50.708;7.906;2024-01-30T13:07:14;9.33;;;4.40;;
77206;SDS011;66190;50.708;7.906;2024-01-30T13:09:39;9.90;;;4.27;;
77206;SDS011;66190;50.708;7.906;2024-01-30T13:12:05;9.60;;;4.22;;
77206;SDS011;66190;50.708;7.906;2024-01-30T13:14:31;8.90;;;3.77;;
77206;SDS011;66190;50.708;7.906;2024-01-30T13:16:56;10.68;;;4.40;;
77206;SDS011;66190;50.708;7.906;2024-01-30T13:19:21;14.05;;;4.68;;
77206;SDS011;66190;50.708;7.906;2024-01-30T13:21:47;12.30;;;5.30;;
77206;SDS011;66190;50.708;7.906;2024-01-30T13:24:12;9.53;;;4.23;;
77206;SDS011;66190;50.708;7.906;2024-01-30T13:26:38;9.48;;;4.40;;
77206;SDS011;66190;50.708;7.906;2024-01-30T13:29:04;10.27;;;4.60;;
77206;SDS011;66190;50.708;7.906;2024-01-30T13:31:30;10.80;;;4.93;;
77206;SDS011;66190;50.708;7.906;2024-01-30T13:33:55;10.53;;;4.40;;
77206;SDS011;66190;50.708;7.906;2024-01-30T13:36:21;11.43;;;4.73;;
77206;SDS011;66190;50.708;7.906;2024-01-30T13:38:47;10.10;;;4.30;;
77206;SDS011;66190;50.708;7.906;2024-01-30T13:41:13;10.48;;;4.47;;
77206;SDS011;66190;50.708;7.906;2024-01-30T13:43:38;11.87;;;4.83;;
77206;SDS011;66190;50.708;7.906;2024-01-30T13:46:04;11.70;;;5.40;;
77206;SDS011;66190;50.708;7.906;2024-01-30T13:48:29;11.73;;;4.90;;
77206;SDS011;66190;50.708;7.906;2024-01-30T13:50:56;10.95;;;4.05;;
77206;SDS011;66190;50.708;7.906;2024-01-30T13:53:21;12.75;;;4.60;;
77206;SDS011;66190;50.708;7.906;2024-01-30T13:55:47;10.43;;;4.40;;
77206;SDS011;66190;50.708;7.906;2024-01-30T13:58:12;11.50;;;4.47;;
77206;SDS011;66190;50.708;7.906;2024-01-30T14:00:38;9.55;;;4.00;;
77206;SDS011;66190;50.708;7.906;2024-01-30T14:03:03;10.57;;;3.92;;
77206;SDS011;66190;50.708;7.906;2024-01-30T14:05:29;13.50;;;5.30;;
77206;SDS011;66190;50.708;7.906;2024-01-30T14:07:55;13.07;;;5.28;;
77206;SDS011;66190;50.708;7.906;2024-01-30T14:10:22;9.15;;;4.90;;
77206;SDS011;66190;50.708;7.906;2024-01-30T14:12:47;11.90;;;5.78;;
77206;SDS011;66190;50.708;7.906;2024-01-30T14:15:13;12.33;;;5.67;;
77206;SDS011;66190;50.708;7.906;2024-01-30T14:17:46;14.20;;;5.10;;
77206;SDS011;66190;50.708;7.906;2024-01-30T14:20:13;10.85;;;4.78;;
77206;SDS011;66190;50.708;7.906;2024-01-30T14:22:39;10.68;;;4.65;;
77206;SDS011;66190;50.708;7.906;2024-01-30T14:25:05;11.15;;;5.15;;
77206;SDS011;66190;50.708;7.906;2024-01-30T14:27:31;12.60;;;5.10;;
77206;SDS011;66190;50.708;7.906;2024-01-30T14:29:57;12.37;;;4.73;;
77206;SDS011;66190;50.708;7.906;2024-01-30T14:32:23;13.27;;;4.97;;